Time;durP1;ratioP1;P1;durP2;ratioP2;P2;SDS_P1;SDS_P2;PMS_P1;PMS_P2;Temp;Humidity;BMP_temperature;BMP_pressure;BME280_temperature;BME280_humidity;BME280_pressure;Samples;Min_cycle;Max_cycle;Signal;HPM_P1;HPM_P2
2021/12/25 00:01:06;;;;;;;97.50;53.42;;;;;;;-144.47;100.00;61586.06;5052585;28;20033;-84
2021/12/25 00:03:33;;;;;;;92.40;52.25;;;;;;;-144.47;100.00;61586.06;5044037;28;20037;-84
2021/12/25 00:05:59;;;;;;;95.53;57.17;;;;;;;-144.47;100.00;61586.06;5035036;28;20040;-84
2021/12/25 00:08:26;;;;;;;96.63;53.40;;;;;;;-144.47;100.00;61586.06;5051278;28;20059;-85
2021/12/25 00:10:54;;;;;;;104.15;55.42;;;;;;;-144.47;100.00;61586.06;5051645;28;20469;-83
2021/12/25 00:13:20;;;;;;;102.10;53.47;;;;;;;-144.47;100.00;61586.06;5034172;28;20040;-84
2021/12/25 00:15:47;;;;;;;99.63;54.58;;;;;;;-144.47;100.00;61586.06;5051625;28;20029;-84
2021/12/25 00:18:12;;;;;;;101.80;56.10;;;;;;;-144.47;100.00;61586.06;5051750;28;20028;-84
2021/12/25 00:20:38;;;;;;;98.32;53.50;;;;;;;-144.47;100.00;61586.06;5052614;28;20115;-84
2021/12/25 00:23:05;;;;;;;99.57;56.10;;;;;;;-144.47;100.00;61586.06;5052581;28;20025;-84
2021/12/25 00:25:36;;;;;;;104.68;56.58;;;;;;;-144.47;100.00;61586.06;5042697;28;20082;-85
2021/12/25 00:28:18;;;;;;;96.55;54.22;;;;;;;-144.47;100.00;61586.06;5029719;28;20041;-84
2021/12/25 00:31:00;;;;;;;103.03;53.63;;;;;;;-144.47;100.00;61586.06;5032638;28;20449;-84
2021/12/25 00:35:59;;;;;;;96.32;53.25;;;;;;;-144.47;100.00;61586.06;5050472;28;20036;-83
2021/12/25 00:38:25;;;;;;;90.97;51.45;;;;;;;-144.47;100.00;61586.06;5050606;28;20059;-83
2021/12/25 00:40:50;;;;;;;95.53;53.08;;;;;;;-144.47;100.00;61586.06;5026077;28;20112;-83
2021/12/25 00:43:16;;;;;;;94.55;51.72;;;;;;;-144.47;100.00;61586.06;5037153;28;20029;-83
2021/12/25 00:45:41;;;;;;;100.28;54.40;;;;;;;-144.47;100.00;61586.06;5036252;28;20461;-83
2021/12/25 00:48:07;;;;;;;95.07;53.13;;;;;;;-144.47;100.00;61586.06;5055041;28;20040;-83
2021/12/25 00:50:33;;;;;;;91.32;50.97;;;;;;;-144.47;100.00;61586.06;5054528;28;20477;-83
2021/12/25 00:52:58;;;;;;;93.78;51.65;;;;;;;-144.47;100.00;61586.06;5055383;28;20040;-84
2021/12/25 00:55:25;;;;;;;88.35;49.35;;;;;;;-144.47;100.00;61586.06;5052713;28;20041;-83
2021/12/25 00:57:51;;;;;;;87.53;48.95;;;;;;;-144.47;100.00;61586.06;5039463;28;20044;-85
2021/12/25 01:00:18;;;;;;;86.15;49.30;;;;;;;-144.47;100.00;61586.06;5039411;28;20186;-84
2021/12/25 01:02:45;;;;;;;82.18;48.22;;;;;;;-144.47;100.00;61586.06;5039485;28;20033;-83
2021/12/25 01:05:12;;;;;;;84.78;48.67;;;;;;;-144.47;100.00;61586.06;5036429;28;20028;-82
2021/12/25 01:07:39;;;;;;;76.00;46.55;;;;;;;-144.47;100.00;61586.06;5054251;28;20029;-82
2021/12/25 01:10:09;;;;;;;81.78;47.05;;;;;;;-144.47;100.00;61586.06;5036078;28;20119;-83
2021/12/25 01:13:04;;;;;;;78.13;47.17;;;;;;;-144.47;100.00;61586.06;5035935;28;20086;-83
2021/12/25 01:15:29;;;;;;;80.72;47.58;;;;;;;-144.47;100.00;61586.06;5053822;28;20135;-85
2021/12/25 01:25:59;;;;;;;85.60;47.50;;;;;;;-144.47;100.00;61586.06;5031135;28;20093;-85
2021/12/25 01:39:22;;;;;;;93.20;52.88;;;;;;;-144.47;100.00;61586.06;5051796;28;20045;-83
2021/12/25 01:42:08;;;;;;;93.10;50.85;;;;;;;-144.47;100.00;61586.06;5054149;28;20032;-83
2021/12/25 01:48:00;;;;;;;87.07;48.70;;;;;;;-144.47;100.00;61586.06;5057583;28;20040;-83
2021/12/25 01:50:28;;;;;;;88.82;52.15;;;;;;;-144.47;100.00;61586.06;5040688;28;20037;-83
2021/12/25 01:52:55;;;;;;;91.32;50.53;;;;;;;-144.47;100.00;61586.06;5046496;28;20041;-83
2021/12/25 01:55:24;;;;;;;94.15;51.97;;;;;;;-144.47;100.00;61586.06;5044440;28;20037;-83
2021/12/25 01:57:52;;;;;;;90.80;52.40;;;;;;;-144.47;100.00;61586.06;5068581;28;20059;-84
2021/12/25 02:00:19;;;;;;;96.78;52.22;;;;;;;-144.47;100.00;61586.06;5053353;28;20021;-83
2021/12/25 02:02:46;;;;;;;95.00;51.50;;;;;;;-144.47;100.00;61586.06;5054976;28;20045;-82
2021/12/25 02:05:12;;;;;;;95.93;51.33;;;;;;;-144.47;100.00;61586.06;5037499;28;20028;-83
2021/12/25 02:07:38;;;;;;;98.03;51.47;;;;;;;-144.47;100.00;61586.06;5037255;28;20025;-84
2021/12/25 02:10:05;;;;;;;95.35;54.53;;;;;;;-144.47;100.00;61586.06;5036038;28;20037;-82
2021/12/25 02:12:33;;;;;;;93.88;52.42;;;;;;;-144.47;100.00;61586.06;5031892;28;20032;-83
2021/12/25 02:15:06;;;;;;;99.93;51.15;;;;;;;-144.47;100.00;61586.06;5036295;28;20048;-83
2021/12/25 02:20:35;;;;;;;93.68;49.30;;;;;;;-144.47;100.00;61586.06;5036426;28;20033;-84
2021/12/25 02:23:04;;;;;;;93.88;49.42;;;;;;;-144.47;100.00;61586.06;5051543;28;20044;-84
2021/12/25 02:25:33;;;;;;;92.35;50.10;;;;;;;-144.47;100.00;61586.06;5046179;28;20033;-83
2021/12/25 02:27:59;;;;;;;99.05;50.42;;;;;;;-144.47;100.00;61586.06;5044633;28;20052;-83
2021/12/25 02:30:25;;;;;;;91.55;48.58;;;;;;;-144.47;100.00;61586.06;5062781;28;20070;-84
2021/12/25 02:32:51;;;;;;;91.90;49.47;;;;;;;-144.47;100.00;61586.06;5042036;28;20053;-84
2021/12/25 02:35:17;;;;;;;90.70;47.95;;;;;;;-144.47;100.00;61586.06;5059000;28;20041;-84
2021/12/25 02:37:44;;;;;;;93.28;48.17;;;;;;;-144.47;100.00;61586.06;5039650;28;20043;-85
2021/12/25 02:40:11;;;;;;;83.57;46.17;;;;;;;-144.47;100.00;61586.06;5053876;28;20451;-83
2021/12/25 02:42:38;;;;;;;89.88;48.03;;;;;;;-144.47;100.00;61586.06;5034464;28;20021;-82
2021/12/25 02:45:05;;;;;;;88.07;48.03;;;;;;;-144.47;100.00;61586.06;5054551;28;20464;-84
2021/12/25 02:47:31;;;;;;;90.05;47.65;;;;;;;-144.47;100.00;61586.06;5035411;28;20066;-84
2021/12/25 02:49:58;;;;;;;87.90;47.78;;;;;;;-144.47;100.00;61586.06;5034649;28;20377;-83
2021/12/25 02:52:24;;;;;;;89.70;48.30;;;;;;;-144.47;100.00;61586.06;5051144;28;20055;-82
2021/12/25 02:54:49;;;;;;;87.38;47.88;;;;;;;-144.47;100.00;61586.06;5034923;28;20025;-82
2021/12/25 02:57:16;;;;;;;81.75;46.75;;;;;;;-144.47;100.00;61586.06;5015844;28;20048;-82
2021/12/25 02:59:42;;;;;;;88.28;47.00;;;;;;;-144.47;100.00;61586.06;5053715;28;20061;-83
2021/12/25 03:02:14;;;;;;;82.38;46.50;;;;;;;-144.47;100.00;61586.06;5056069;28;20422;-83
2021/12/25 03:04:42;;;;;;;92.93;49.67;;;;;;;-144.47;100.00;61586.06;5035113;28;20072;-82
2021/12/25 03:07:09;;;;;;;85.38;47.35;;;;;;;-144.47;100.00;61586.06;5053267;28;20033;-84
2021/12/25 03:09:35;;;;;;;87.22;47.33;;;;;;;-144.47;100.00;61586.06;5035913;28;20056;-81
2021/12/25 03:12:03;;;;;;;84.60;46.83;;;;;;;-144.47;100.00;61586.06;5035520;28;20060;-83
2021/12/25 03:14:38;;;;;;;82.88;47.65;;;;;;;-144.47;100.00;61586.06;5035457;28;20108;-83
2021/12/25 03:17:04;;;;;;;87.88;49.00;;;;;;;-144.47;100.00;61586.06;5048002;28;20029;-82
2021/12/25 03:19:34;;;;;;;84.75;48.08;;;;;;;-144.47;100.00;61586.06;5034451;28;20029;-83
2021/12/25 03:22:01;;;;;;;86.07;47.25;;;;;;;-144.47;100.00;61586.06;5034718;28;20488;-83
2021/12/25 03:24:27;;;;;;;89.93;48.83;;;;;;;-144.47;100.00;61586.06;5018875;28;20029;-84
2021/12/25 03:26:56;;;;;;;93.65;49.08;;;;;;;-144.47;100.00;61586.06;5052586;28;20043;-83
2021/12/25 03:29:26;;;;;;;78.85;45.17;;;;;;;-144.47;100.00;61586.06;5018631;28;20048;-83
2021/12/25 03:31:53;;;;;;;83.18;46.70;;;;;;;-144.47;100.00;61586.06;5034989;28;20041;-84
2021/12/25 03:34:20;;;;;;;81.05;45.53;;;;;;;-144.47;100.00;61586.06;5052886;28;20393;-82
2021/12/25 03:36:45;;;;;;;85.50;48.90;;;;;;;-144.47;100.00;61586.06;5034572;28;20103;-83
2021/12/25 03:39:13;;;;;;;79.15;45.63;;;;;;;-144.47;100.00;61586.06;5035705;28;20453;-82
2021/12/25 03:41:38;;;;;;;84.88;44.92;;;;;;;-144.47;100.00;61586.06;5018250;28;20036;-83
2021/12/25 03:44:04;;;;;;;82.50;46.58;;;;;;;-144.47;100.00;61586.06;5035101;28;20047;-83
2021/12/25 03:46:31;;;;;;;81.95;46.22;;;;;;;-144.47;100.00;61586.06;5017047;28;20033;-82
2021/12/25 03:59:40;;;;;;;81.05;46.05;;;;;;;-144.47;100.00;61586.06;5051147;28;20029;-84
2021/12/25 04:02:09;;;;;;;79.00;44.55;;;;;;;-144.47;100.00;61586.06;5016353;28;20029;-82
2021/12/25 04:04:38;;;;;;;79.28;44.90;;;;;;;-144.47;100.00;61586.06;5032829;28;20094;-83
2021/12/25 04:07:15;;;;;;;80.10;43.80;;;;;;;-144.47;100.00;61586.06;5033266;28;20056;-82
2021/12/25 04:09:41;;;;;;;85.38;46.20;;;;;;;-144.47;100.00;61586.06;5026677;28;20108;-81
2021/12/25 04:12:12;;;;;;;80.68;45.30;;;;;;;-144.47;100.00;61586.06;5033055;28;20028;-82
2021/12/25 04:14:39;;;;;;;83.50;45.70;;;;;;;-144.47;100.00;61586.06;5032376;28;20048;-81
2021/12/25 04:17:05;;;;;;;83.43;46.92;;;;;;;-144.47;100.00;61586.06;5011063;28;20041;-82
2021/12/25 04:19:33;;;;;;;83.97;47.13;;;;;;;-144.47;100.00;61586.06;5024968;28;20025;-83
2021/12/25 04:22:03;;;;;;;83.82;45.90;;;;;;;-144.47;100.00;61586.06;5032837;28;20473;-83
2021/12/25 04:24:33;;;;;;;82.43;47.13;;;;;;;-144.47;100.00;61586.06;5032947;28;20166;-83
2021/12/25 04:27:01;;;;;;;82.35;45.22;;;;;;;-144.47;100.00;61586.06;5033150;28;20028;-84
2021/12/25 05:04:27;;;;;;;79.30;44.88;;;;;;;-144.47;100.00;61586.06;5051000;28;20100;-85
2021/12/25 05:07:08;;;;;;;86.03;45.25;;;;;;;-144.47;100.00;61586.06;5025608;28;20037;-84
2021/12/25 05:09:34;;;;;;;81.22;45.35;;;;;;;-144.47;100.00;61586.06;5016717;28;20025;-84
2021/12/25 05:12:00;;;;;;;78.60;43.28;;;;;;;-144.47;100.00;61586.06;5032935;28;20074;-84
2021/12/25 05:14:25;;;;;;;80.53;44.45;;;;;;;-144.47;100.00;61586.06;5032460;28;20052;-85
2021/12/25 05:16:52;;;;;;;85.35;45.28;;;;;;;-144.47;100.00;61586.06;5028481;28;20075;-84
2021/12/25 05:19:19;;;;;;;82.10;44.80;;;;;;;-144.47;100.00;61586.06;5033702;28;20032;-84
2021/12/25 05:21:44;;;;;;;75.07;42.55;;;;;;;-144.47;100.00;61586.06;5033000;28;20354;-86
2021/12/25 05:24:10;;;;;;;80.57;43.78;;;;;;;-144.47;100.00;61586.06;5033026;28;20045;-86
2021/12/25 05:26:44;;;;;;;75.13;43.00;;;;;;;-144.47;100.00;61586.06;5034675;28;20025;-86
2021/12/25 05:29:10;;;;;;;79.68;43.65;;;;;;;-144.47;100.00;61586.06;5037211;28;20066;-85
2021/12/25 05:31:37;;;;;;;84.55;46.08;;;;;;;-144.47;100.00;61586.06;5036371;28;20055;-85
2021/12/25 05:34:28;;;;;;;82.78;44.03;;;;;;;-144.47;100.00;61586.06;5055625;28;20041;-85
2021/12/25 05:37:23;;;;;;;80.68;43.72;;;;;;;-144.47;100.00;61586.06;5040384;28;20350;-85
2021/12/25 05:40:18;;;;;;;84.07;45.08;;;;;;;-144.47;100.00;61586.06;5035220;28;20147;-86
2021/12/25 05:42:48;;;;;;;79.47;44.95;;;;;;;-144.47;100.00;61586.06;5036628;28;20050;-86
2021/12/25 05:45:14;;;;;;;88.38;46.10;;;;;;;-144.47;100.00;61586.06;5031986;28;20116;-86
2021/12/25 05:47:58;;;;;;;84.45;45.70;;;;;;;-144.47;100.00;61586.06;5054388;28;20086;-86
2021/12/25 05:50:42;;;;;;;81.65;45.08;;;;;;;-144.47;100.00;61586.06;5037038;28;20048;-85
2021/12/25 05:53:33;;;;;;;82.85;45.30;;;;;;;-144.47;100.00;61586.06;5031303;28;20473;-85
2021/12/25 05:56:17;;;;;;;83.95;45.45;;;;;;;-144.47;100.00;61586.06;5048890;28;20900;-85
2021/12/25 05:58:53;;;;;;;87.28;47.40;;;;;;;-144.47;100.00;61586.06;5036675;28;20037;-86
2021/12/25 06:01:39;;;;;;;85.38;46.47;;;;;;;-144.47;100.00;61586.06;5040412;28;20508;-85
2021/12/25 06:04:06;;;;;;;84.15;47.40;;;;;;;-144.47;100.00;61586.06;5037460;28;20041;-83
2021/12/25 06:06:32;;;;;;;89.18;48.50;;;;;;;-144.47;100.00;61586.06;5060095;28;20032;-82
2021/12/25 06:08:58;;;;;;;86.38;47.63;;;;;;;-144.47;100.00;61586.06;5069930;28;20028;-83
2021/12/25 06:11:24;;;;;;;85.38;47.08;;;;;;;-144.47;100.00;61586.06;5070949;28;20045;-84
2021/12/25 06:14:05;;;;;;;86.78;47.00;;;;;;;-144.47;100.00;61586.06;5024706;28;20084;-84
2021/12/25 06:16:39;;;;;;;89.25;47.97;;;;;;;-144.47;100.00;61586.06;5050607;28;20505;-84
2021/12/25 06:19:15;;;;;;;82.75;45.58;;;;;;;-144.47;100.00;61586.06;5037330;28;20029;-83
2021/12/25 06:22:01;;;;;;;89.97;45.05;;;;;;;-144.47;100.00;61586.06;5055503;28;20118;-84
2021/12/25 06:24:35;;;;;;;86.38;45.72;;;;;;;-144.47;100.00;61586.06;5032759;28;20105;-84
2021/12/25 06:27:19;;;;;;;84.07;47.50;;;;;;;-144.47;100.00;61586.06;5034624;28;20508;-84
2021/12/25 06:30:13;;;;;;;82.15;45.47;;;;;;;-144.47;100.00;61586.06;5023006;28;20036;-84
2021/12/25 06:32:53;;;;;;;76.57;43.58;;;;;;;-144.47;100.00;61586.06;5036381;28;20441;-85
2021/12/25 06:35:37;;;;;;;81.28;44.00;;;;;;;-144.47;100.00;61586.06;5050777;28;20110;-85
2021/12/25 06:38:21;;;;;;;84.32;46.40;;;;;;;-144.47;100.00;61586.06;5053202;28;20126;-86
2021/12/25 06:41:01;;;;;;;80.93;45.78;;;;;;;-144.47;100.00;61586.06;5033941;28;20041;-85
2021/12/25 06:43:28;;;;;;;87.50;46.05;;;;;;;-144.47;100.00;61586.06;5045164;28;20044;-85
2021/12/25 06:45:54;;;;;;;83.40;46.05;;;;;;;-144.47;100.00;61586.06;5048698;28;20025;-85
2021/12/25 06:48:20;;;;;;;82.05;46.13;;;;;;;-144.47;100.00;61586.06;5021860;28;20716;-85
2021/12/25 06:51:04;;;;;;;85.18;45.40;;;;;;;-144.47;100.00;61586.06;5061650;28;20055;-86
2021/12/25 06:53:43;;;;;;;78.30;44.45;;;;;;;-144.47;100.00;61586.06;5049430;28;20049;-86
2021/12/25 06:56:29;;;;;;;85.57;46.58;;;;;;;-144.47;100.00;61586.06;5063496;28;20029;-86
2021/12/25 06:59:02;;;;;;;85.00;45.65;;;;;;;-144.47;100.00;61586.06;5044190;28;20033;-86
2021/12/25 07:01:30;;;;;;;81.60;46.20;;;;;;;-144.47;100.00;61586.06;5041943;28;20480;-86
2021/12/25 07:03:55;;;;;;;85.82;44.67;;;;;;;-144.47;100.00;61586.06;5037037;28;20095;-85
2021/12/25 07:06:40;;;;;;;85.35;44.88;;;;;;;-144.47;100.00;61586.06;5050975;28;20392;-86
2021/12/25 07:09:24;;;;;;;85.57;44.53;;;;;;;-144.47;100.00;61586.06;5052450;28;20052;-86
2021/12/25 07:11:56;;;;;;;81.82;45.28;;;;;;;-144.47;100.00;61586.06;5053554;28;20080;-85
2021/12/25 07:14:45;;;;;;;82.25;44.85;;;;;;;-144.47;100.00;61586.06;5033014;28;20029;-85
2021/12/25 07:17:28;;;;;;;82.15;44.53;;;;;;;-144.47;100.00;61586.06;5020941;28;20029;-83
2021/12/25 07:20:21;;;;;;;81.75;43.08;;;;;;;-144.47;100.00;61586.06;5035181;28;20436;-85
2021/12/25 07:22:55;;;;;;;84.28;44.67;;;;;;;-144.47;100.00;61586.06;5020039;28;20133;-84
2021/12/25 07:25:35;;;;;;;82.20;45.55;;;;;;;-144.47;100.00;61586.06;5031074;28;20120;-85
2021/12/25 07:28:16;;;;;;;86.95;47.55;;;;;;;-144.47;100.00;61586.06;5029276;28;20114;-83
2021/12/25 07:30:41;;;;;;;90.03;47.10;;;;;;;-144.47;100.00;61586.06;5052891;28;20503;-85
2021/12/25 07:33:07;;;;;;;84.18;46.78;;;;;;;-144.47;100.00;61586.06;5035158;28;20033;-84
2021/12/25 07:35:32;;;;;;;84.68;47.47;;;;;;;-144.47;100.00;61586.06;5052957;28;20537;-85
2021/12/25 07:37:58;;;;;;;85.35;48.95;;;;;;;-144.47;100.00;61586.06;5052814;28;20025;-82
2021/12/25 07:40:24;;;;;;;90.32;46.53;;;;;;;-144.47;100.00;61586.06;5036054;28;20555;-88
2021/12/25 07:42:49;;;;;;;88.22;47.88;;;;;;;-144.47;100.00;61586.06;5053307;28;20071;-81
2021/12/25 07:45:35;;;;;;;90.88;48.17;;;;;;;-144.47;100.00;61586.06;5013520;28;20045;-84
2021/12/25 07:48:02;;;;;;;92.65;48.42;;;;;;;-144.47;100.00;61586.06;5051975;28;20465;-82
2021/12/25 07:50:31;;;;;;;94.57;49.60;;;;;;;-144.47;100.00;61586.06;5052538;28;20032;-82
2021/12/25 07:52:58;;;;;;;89.85;47.38;;;;;;;-144.47;100.00;61586.06;5057158;28;20071;-82
2021/12/25 07:55:24;;;;;;;94.32;48.55;;;;;;;-144.47;100.00;61586.06;5057046;28;20114;-78
2021/12/25 07:57:49;;;;;;;92.40;48.35;;;;;;;-144.47;100.00;61586.06;5060428;28;20040;-84
2021/12/25 08:00:16;;;;;;;88.22;47.92;;;;;;;-144.47;100.00;61586.06;5063743;28;20033;-84
2021/12/25 08:02:46;;;;;;;92.72;47.88;;;;;;;-144.47;100.00;61586.06;5056848;28;20036;-84
2021/12/25 08:05:12;;;;;;;89.07;47.83;;;;;;;-144.47;100.00;61586.06;5055690;28;20037;-83
2021/12/25 08:07:38;;;;;;;92.75;49.70;;;;;;;-144.47;100.00;61586.06;5058003;28;20066;-80
2021/12/25 08:10:13;;;;;;;93.68;48.92;;;;;;;-144.47;100.00;61586.06;5059688;28;20032;-80
2021/12/25 08:12:55;;;;;;;86.63;47.75;;;;;;;-144.47;100.00;61586.06;5035649;28;20033;-82
2021/12/25 08:15:23;;;;;;;94.45;50.00;;;;;;;-144.47;100.00;61586.06;5052240;28;20045;-83
2021/12/25 08:17:49;;;;;;;90.28;48.38;;;;;;;-144.47;100.00;61586.06;5051467;28;20040;-82
2021/12/25 08:20:32;;;;;;;89.63;47.47;;;;;;;-144.47;100.00;61586.06;5050032;28;20071;-83
2021/12/25 08:23:16;;;;;;;92.70;50.30;;;;;;;-144.47;100.00;61586.06;5045506;28;20060;-85
2021/12/25 08:26:02;;;;;;;90.32;50.50;;;;;;;-144.47;100.00;61586.06;5051749;28;20044;-87
2021/12/25 08:28:46;;;;;;;90.70;47.55;;;;;;;-144.47;100.00;61586.06;5051107;28;20060;-84
2021/12/25 08:31:30;;;;;;;86.97;47.65;;;;;;;-144.47;100.00;61586.06;5036852;28;20052;-86
2021/12/25 08:34:11;;;;;;;84.72;48.83;;;;;;;-144.47;100.00;61586.06;5049388;28;20045;-85
2021/12/25 08:37:02;;;;;;;81.30;45.63;;;;;;;-144.47;100.00;61586.06;5028232;28;20048;-84
2021/12/25 08:39:27;;;;;;;82.53;45.25;;;;;;;-144.47;100.00;61586.06;5051813;28;20053;-86
2021/12/25 08:42:01;;;;;;;83.22;45.85;;;;;;;-144.47;100.00;61586.06;5050592;28;20036;-87
2021/12/25 08:44:33;;;;;;;83.72;45.80;;;;;;;-144.47;100.00;61586.06;5050081;28;20037;-84
2021/12/25 08:47:00;;;;;;;82.20;47.10;;;;;;;-144.47;100.00;61586.06;5051980;28;20488;-84
2021/12/25 08:49:31;;;;;;;90.93;46.47;;;;;;;-144.47;100.00;61586.06;5053514;28;20459;-85
2021/12/25 08:52:10;;;;;;;86.05;47.17;;;;;;;-144.47;100.00;61586.06;5069007;28;20040;-83
2021/12/25 08:54:36;;;;;;;82.05;46.70;;;;;;;-144.47;100.00;61586.06;5051640;28;20370;-83
2021/12/25 08:57:03;;;;;;;84.72;47.13;;;;;;;-144.47;100.00;61586.06;5042831;28;20032;-81
2021/12/25 08:59:29;;;;;;;86.15;47.50;;;;;;;-144.47;100.00;61586.06;5050137;28;20040;-84
2021/12/25 09:01:56;;;;;;;82.93;45.83;;;;;;;-144.47;100.00;61586.06;5052758;28;20032;-82
2021/12/25 09:04:21;;;;;;;91.15;49.92;;;;;;;-144.47;100.00;61586.06;5054129;28;20107;-83
2021/12/25 09:06:47;;;;;;;87.78;47.65;;;;;;;-144.47;100.00;61586.06;5051830;28;20032;-80
2021/12/25 09:09:12;;;;;;;86.45;46.75;;;;;;;-144.47;100.00;61586.06;5035698;28;20025;-82
2021/12/25 09:11:40;;;;;;;84.45;47.00;;;;;;;-144.47;100.00;61586.06;5053909;28;20474;-81
2021/12/25 09:14:06;;;;;;;85.25;47.22;;;;;;;-144.47;100.00;61586.06;5054112;28;20385;-82
2021/12/25 09:16:32;;;;;;;81.97;45.17;;;;;;;-144.47;100.00;61586.06;5046876;28;20124;-84
2021/12/25 09:18:58;;;;;;;87.45;48.05;;;;;;;-144.47;100.00;61586.06;5056397;28;20044;-80
2021/12/25 09:21:24;;;;;;;85.82;46.72;;;;;;;-144.47;100.00;61586.06;5053981;28;20030;-80
2021/12/25 09:23:50;;;;;;;81.38;47.20;;;;;;;-144.47;100.00;61586.06;5053858;28;20048;-85
2021/12/25 09:26:17;;;;;;;88.47;49.58;;;;;;;-144.47;100.00;61586.06;5054144;28;20037;-81
2021/12/25 09:28:43;;;;;;;82.35;47.78;;;;;;;-144.47;100.00;61586.06;5053850;28;20497;-81
2021/12/25 09:31:09;;;;;;;86.97;45.95;;;;;;;-144.47;100.00;61586.06;5035784;28;20547;-83
2021/12/25 09:33:34;;;;;;;82.40;47.78;;;;;;;-144.47;100.00;61586.06;5053904;28;20033;-81
2021/12/25 09:36:02;;;;;;;82.72;46.92;;;;;;;-144.47;100.00;61586.06;5053440;28;20113;-80
2021/12/25 09:38:29;;;;;;;86.78;48.65;;;;;;;-144.47;100.00;61586.06;5040493;28;20037;-79
2021/12/25 09:40:58;;;;;;;84.03;49.55;;;;;;;-144.47;100.00;61586.06;5043433;28;20090;-81
2021/12/25 09:43:25;;;;;;;81.87;46.83;;;;;;;-144.47;100.00;61586.06;5043950;28;20587;-80
2021/12/25 09:45:50;;;;;;;82.50;48.10;;;;;;;-144.47;100.00;61586.06;5043622;28;20060;-83
2021/12/25 09:48:16;;;;;;;83.90;48.38;;;;;;;-144.47;100.00;61586.06;5042050;28;20141;-86
2021/12/25 09:50:42;;;;;;;79.88;45.53;;;;;;;-144.47;100.00;61586.06;5025889;28;20040;-84
2021/12/25 09:53:10;;;;;;;77.88;44.70;;;;;;;-144.47;100.00;61586.06;5024302;28;20082;-81
2021/12/25 09:55:38;;;;;;;80.28;45.95;;;;;;;-144.47;100.00;61586.06;5025747;28;20136;-83
2021/12/25 09:58:05;;;;;;;80.32;46.92;;;;;;;-144.47;100.00;61586.06;5045604;28;20028;-81
2021/12/25 10:00:33;;;;;;;73.45;44.10;;;;;;;-144.47;100.00;61586.06;5047795;28;20029;-81
2021/12/25 10:02:59;;;;;;;79.28;47.28;;;;;;;-144.47;100.00;61586.06;5051841;28;20558;-80
2021/12/25 10:05:29;;;;;;;76.22;46.45;;;;;;;-144.47;100.00;61586.06;5053441;28;20037;-82
2021/12/25 10:08:18;;;;;;;78.03;45.55;;;;;;;-144.47;100.00;61586.06;5040994;28;20136;-80
2021/12/25 10:10:50;;;;;;;82.72;45.63;;;;;;;-144.47;100.00;61586.06;5039854;28;20033;-81
2021/12/25 10:13:17;;;;;;;80.47;47.72;;;;;;;-144.47;100.00;61586.06;5023647;28;20401;-84
2021/12/25 10:15:42;;;;;;;77.15;44.75;;;;;;;-144.47;100.00;61586.06;5021425;28;20917;-83
2021/12/25 10:18:08;;;;;;;75.57;45.22;;;;;;;-144.47;100.00;61586.06;5020794;28;20095;-81
2021/12/25 10:20:34;;;;;;;82.88;47.10;;;;;;;-144.47;100.00;61586.06;5039444;28;20404;-81
2021/12/25 10:23:14;;;;;;;82.18;47.47;;;;;;;-144.47;100.00;61586.06;5038585;28;20036;-82
2021/12/25 10:25:46;;;;;;;72.97;44.67;;;;;;;-144.47;100.00;61586.06;5043032;28;20029;-82
2021/12/25 10:28:13;;;;;;;80.88;45.65;;;;;;;-144.47;100.00;61586.06;5024767;28;20029;-82
2021/12/25 10:31:13;;;;;;;76.47;44.53;;;;;;;-144.47;100.00;61586.06;5023323;28;20029;-84
2021/12/25 10:33:53;;;;;;;75.20;44.88;;;;;;;-144.47;100.00;61586.06;5025595;28;20041;-84
2021/12/25 10:36:21;;;;;;;75.70;44.42;;;;;;;-144.47;100.00;61586.06;5041942;28;20112;-82
2021/12/25 10:39:04;;;;;;;79.20;46.58;;;;;;;-144.47;100.00;61586.06;5053096;28;20095;-85
2021/12/25 10:41:31;;;;;;;75.50;45.45;;;;;;;-144.47;100.00;61586.06;5055368;28;20025;-80
2021/12/25 10:44:21;;;;;;;79.68;46.05;;;;;;;-144.47;100.00;61586.06;5037331;28;20528;-83
2021/12/25 10:46:49;;;;;;;71.17;44.07;;;;;;;-144.47;100.00;61586.06;5029684;28;20040;-83
2021/12/25 10:49:15;;;;;;;75.82;44.17;;;;;;;-144.47;100.00;61586.06;5053446;28;20672;-80
2021/12/25 10:51:40;;;;;;;80.90;46.35;;;;;;;-144.47;100.00;61586.06;5057392;28;20044;-80
2021/12/25 10:54:10;;;;;;;73.40;45.55;;;;;;;-144.47;100.00;61586.06;5065240;28;20127;-79
2021/12/25 10:56:38;;;;;;;75.83;45.17;;;;;;;-144.47;100.00;61586.06;5065172;28;20056;-81
2021/12/25 10:59:06;;;;;;;78.53;46.67;;;;;;;-144.47;100.00;61586.06;5051522;28;20040;-82
2021/12/25 11:01:38;;;;;;;72.45;43.97;;;;;;;-144.47;100.00;61586.06;5057395;28;20033;-82
2021/12/25 11:04:04;;;;;;;73.93;45.47;;;;;;;-144.47;100.00;61586.06;5038679;28;20116;-84
2021/12/25 11:06:29;;;;;;;82.78;46.13;;;;;;;-144.47;100.00;61586.06;5032431;28;20057;-86
2021/12/25 11:08:58;;;;;;;71.30;42.63;;;;;;;-144.47;100.00;61586.06;5052942;28;20408;-87
2021/12/25 11:11:24;;;;;;;70.45;44.47;;;;;;;-144.47;100.00;61586.06;5029374;28;20163;-87
2021/12/25 11:13:55;;;;;;;76.82;43.25;;;;;;;-144.47;100.00;61586.06;5033806;28;20132;-87
2021/12/25 11:16:27;;;;;;;72.80;44.63;;;;;;;-144.47;100.00;61586.06;5052968;28;20033;-83
2021/12/25 11:19:08;;;;;;;74.72;43.72;;;;;;;-144.47;100.00;61586.06;5053356;28;20048;-88
2021/12/25 11:21:46;;;;;;;72.97;44.05;;;;;;;-144.47;100.00;61586.06;5048919;28;20037;-88
2021/12/25 11:24:19;;;;;;;78.60;44.50;;;;;;;-144.47;100.00;61586.06;5047866;28;20068;-88
2021/12/25 11:26:50;;;;;;;75.95;43.58;;;;;;;-144.47;100.00;61586.06;5025228;28;20140;-88
2021/12/25 11:29:20;;;;;;;68.20;41.30;;;;;;;-144.47;100.00;61586.06;5034877;28;20068;-88
2021/12/25 11:31:48;;;;;;;68.32;40.92;;;;;;;-144.47;100.00;61586.06;5010132;28;20025;-86
2021/12/25 11:34:15;;;;;;;75.70;42.35;;;;;;;-144.47;100.00;61586.06;5025287;28;20038;-88
2021/12/25 11:36:42;;;;;;;64.93;40.15;;;;;;;-144.47;100.00;61586.06;5044452;28;20029;-86
2021/12/25 11:39:08;;;;;;;63.10;38.08;;;;;;;-144.47;100.00;61586.06;5030790;28;20029;-88
2021/12/25 11:41:37;;;;;;;61.00;38.20;;;;;;;-144.47;100.00;61586.06;5053454;28;20101;-89
2021/12/25 11:44:23;;;;;;;65.78;40.20;;;;;;;-144.47;100.00;61586.06;5049693;28;20037;-88
2021/12/25 11:46:49;;;;;;;65.47;39.35;;;;;;;-144.47;100.00;61586.06;5049885;28;20191;-88
2021/12/25 11:49:15;;;;;;;67.07;40.45;;;;;;;-144.47;100.00;61586.06;5052566;28;20124;-88
2021/12/25 11:51:46;;;;;;;62.30;38.20;;;;;;;-144.47;100.00;61586.06;5052041;28;20025;-89
2021/12/25 11:55:17;;;;;;;63.40;38.90;;;;;;;-144.47;100.00;61586.06;5045023;28;20037;-88
2021/12/25 11:59:49;;;;;;;66.07;39.40;;;;;;;-144.47;100.00;61586.06;5029644;28;20386;-78
2021/12/25 12:02:43;;;;;;;69.40;41.78;;;;;;;-144.47;100.00;61586.06;5029867;28;20056;-79
2021/12/25 12:05:25;;;;;;;67.18;42.40;;;;;;;-144.47;100.00;61586.06;5030414;28;20056;-78
2021/12/25 12:08:03;;;;;;;71.70;41.78;;;;;;;-144.47;100.00;61586.06;5029712;28;20033;-78
2021/12/25 12:11:01;;;;;;;72.50;43.25;;;;;;;-144.47;100.00;61586.06;4981503;28;20079;-78
2021/12/25 12:13:45;;;;;;;69.78;43.33;;;;;;;-144.47;100.00;61586.06;5027951;28;20128;-77
2021/12/25 12:16:43;;;;;;;72.22;43.17;;;;;;;-144.47;100.00;61586.06;5029292;28;20080;-79
2021/12/25 12:19:41;;;;;;;72.63;42.58;;;;;;;-144.47;100.00;61586.06;5011767;28;20040;-78
2021/12/25 12:22:19;;;;;;;70.10;43.47;;;;;;;-144.47;100.00;61586.06;5030290;28;20455;-78
2021/12/25 12:27:35;;;;;;;73.93;45.30;;;;;;;-144.47;100.00;61586.06;5022312;28;20060;-79
2021/12/25 12:30:05;;;;;;;74.25;45.55;;;;;;;-144.47;100.00;61586.06;5029848;28;20033;-78
2021/12/25 12:32:44;;;;;;;71.65;43.42;;;;;;;-144.47;100.00;61586.06;5012081;28;20374;-78